sensor_id;sensor_type;location;lat;lon;timestamp;temperature;humidity
12309;DHT22;6217;48.150;17.142;2022-12-20T00:00:13;1.70;96.10
12309;DHT22;6217;48.150;17.142;2022-12-20T00:04:19;1.70;96.20
12309;DHT22;6217;48.150;17.142;2022-12-20T00:08:24;1.70;96.20
12309;DHT22;6217;48.150;17.142;2022-12-20T00:12:30;1.70;96.40
12309;DHT22;6217;48.150;17.142;2022-12-20T00:16:36;1.70;96.50
12309;DHT22;6217;48.150;17.142;2022-12-20T00:20:42;1.70;96.50
12309;DHT22;6217;48.150;17.142;2022-12-20T00:24:47;1.70;96.70
12309;DHT22;6217;48.150;17.142;2022-12-20T00:28:54;1.70;96.80
12309;DHT22;6217;48.150;17.142;2022-12-20T00:32:59;1.70;96.90
12309;DHT22;6217;48.150;17.142;2022-12-20T00:37:06;1.60;96.70
12309;DHT22;6217;48.150;17.142;2022-12-20T00:41:17;1.70;97.00
12309;DHT22;6217;48.150;17.142;2022-12-20T00:45:24;1.80;96.90
12309;DHT22;6217;48.150;17.142;2022-12-20T00:49:30;1.80;96.80
12309;DHT22;6217;48.150;17.142;2022-12-20T00:53:36;1.80;96.80
12309;DHT22;6217;48.150;17.142;2022-12-20T00:57:42;1.70;96.80
12309;DHT22;6217;48.150;17.142;2022-12-20T01:01:48;1.80;96.80
12309;DHT22;6217;48.150;17.142;2022-12-20T01:05:59;1.80;96.80
12309;DHT22;6217;48.150;17.142;2022-12-20T01:10:06;1.80;96.90
12309;DHT22;6217;48.150;17.142;2022-12-20T01:14:14;1.80;96.80
12309;DHT22;6217;48.150;17.142;2022-12-20T01:18:20;1.90;96.90
12309;DHT22;6217;48.150;17.142;2022-12-20T01:22:26;1.90;96.70
12309;DHT22;6217;48.150;17.142;2022-12-20T01:26:31;1.80;96.70
12309;DHT22;6217;48.150;17.142;2022-12-20T01:30:39;1.90;96.80
12309;DHT22;6217;48.150;17.142;2022-12-20T01:34:46;1.90;96.90
12309;DHT22;6217;48.150;17.142;2022-12-20T01:38:57;1.90;96.70
12309;DHT22;6217;48.150;17.142;2022-12-20T01:43:03;1.90;96.70
12309;DHT22;6217;48.150;17.142;2022-12-20T01:47:11;1.90;96.80
12309;DHT22;6217;48.150;17.142;2022-12-20T01:51:17;1.80;96.80
12309;DHT22;6217;48.150;17.142;2022-12-20T01:55:25;1.90;96.90
12309;DHT22;6217;48.150;17.142;2022-12-20T01:59:33;1.90;96.80
12309;DHT22;6217;48.150;17.142;2022-12-20T02:03:41;1.90;96.90
12309;DHT22;6217;48.150;17.142;2022-12-20T02:07:50;2.00;96.90
12309;DHT22;6217;48.150;17.142;2022-12-20T02:16:03;2.10;96.70
12309;DHT22;6217;48.150;17.142;2022-12-20T02:20:29;2.00;96.70
12309;DHT22;6217;48.150;17.142;2022-12-20T02:24:53;2.10;96.80
12309;DHT22;6217;48.150;17.142;2022-12-20T02:33:36;2.00;96.60
12309;DHT22;6217;48.150;17.142;2022-12-20T02:37:50;2.00;96.80
12309;DHT22;6217;48.150;17.142;2022-12-20T02:42:05;2.00;97.00
12309;DHT22;6217;48.150;17.142;2022-12-20T02:46:12;2.00;97.00
12309;DHT22;6217;48.150;17.142;2022-12-20T02:50:35;2.00;97.00
12309;DHT22;6217;48.150;17.142;2022-12-20T02:54:41;2.00;97.20
12309;DHT22;6217;48.150;17.142;2022-12-20T02:58:54;2.00;97.20
12309;DHT22;6217;48.150;17.142;2022-12-20T03:03:03;1.90;97.20
12309;DHT22;6217;48.150;17.142;2022-12-20T03:07:28;1.90;97.30
12309;DHT22;6217;48.150;17.142;2022-12-20T03:11:34;1.90;97.40
12309;DHT22;6217;48.150;17.142;2022-12-20T03:15:41;1.80;97.50
12309;DHT22;6217;48.150;17.142;2022-12-20T03:19:46;1.70;97.70
12309;DHT22;6217;48.150;17.142;2022-12-20T03:23:52;1.60;98.00
12309;DHT22;6217;48.150;17.142;2022-12-20T03:27:58;1.60;98.30
12309;DHT22;6217;48.150;17.142;2022-12-20T03:32:06;1.70;98.30
12309;DHT22;6217;48.150;17.142;2022-12-20T03:36:11;1.60;98.30
12309;DHT22;6217;48.150;17.142;2022-12-20T03:40:17;1.60;98.60
12309;DHT22;6217;48.150;17.142;2022-12-20T03:44:24;1.50;98.90
12309;DHT22;6217;48.150;17.142;2022-12-20T03:48:46;1.50;98.80
12309;DHT22;6217;48.150;17.142;2022-12-20T03:52:52;1.50;98.80
12309;DHT22;6217;48.150;17.142;2022-12-20T03:56:58;1.50;98.90
12309;DHT22;6217;48.150;17.142;2022-12-20T04:01:22;1.50;98.90
12309;DHT22;6217;48.150;17.142;2022-12-20T04:05:29;1.40;98.90
12309;DHT22;6217;48.150;17.142;2022-12-20T04:09:36;1.40;99.00
12309;DHT22;6217;48.150;17.142;2022-12-20T04:13:52;1.50;99.00
12309;DHT22;6217;48.150;17.142;2022-12-20T04:17:58;1.40;99.10
12309;DHT22;6217;48.150;17.142;2022-12-20T04:22:05;1.40;99.20
12309;DHT22;6217;48.150;17.142;2022-12-20T04:26:22;1.40;99.40
12309;DHT22;6217;48.150;17.142;2022-12-20T04:30:28;1.30;99.50
12309;DHT22;6217;48.150;17.142;2022-12-20T04:34:34;1.20;99.60
12309;DHT22;6217;48.150;17.142;2022-12-20T04:38:42;1.30;99.60
12309;DHT22;6217;48.150;17.142;2022-12-20T04:42:48;1.30;99.60
12309;DHT22;6217;48.150;17.142;2022-12-20T04:46:57;1.30;99.60
12309;DHT22;6217;48.150;17.142;2022-12-20T04:51:04;1.30;99.70
12309;DHT22;6217;48.150;17.142;2022-12-20T04:55:11;1.30;99.80
12309;DHT22;6217;48.150;17.142;2022-12-20T04:59:17;1.40;99.60
12309;DHT22;6217;48.150;17.142;2022-12-20T05:03:25;1.30;99.60
12309;DHT22;6217;48.150;17.142;2022-12-20T05:07:32;1.30;99.60
12309;DHT22;6217;48.150;17.142;2022-12-20T05:11:37;1.20;99.70
12309;DHT22;6217;48.150;17.142;2022-12-20T05:15:51;1.20;99.80
12309;DHT22;6217;48.150;17.142;2022-12-20T05:20:03;1.10;99.90
12309;DHT22;6217;48.150;17.142;2022-12-20T05:24:10;1.10;99.90
12309;DHT22;6217;48.150;17.142;2022-12-20T05:28:52;1.10;99.90
12309;DHT22;6217;48.150;17.142;2022-12-20T05:32:57;1.10;99.90
12309;DHT22;6217;48.150;17.142;2022-12-20T05:37:04;1.10;99.90
12309;DHT22;6217;48.150;17.142;2022-12-20T05:41:11;1.20;99.90
12309;DHT22;6217;48.150;17.142;2022-12-20T05:45:18;1.10;99.90
12309;DHT22;6217;48.150;17.142;2022-12-20T05:49:30;1.10;99.90
12309;DHT22;6217;48.150;17.142;2022-12-20T05:53:39;1.10;99.90
12309;DHT22;6217;48.150;17.142;2022-12-20T05:57:46;1.00;99.90
12309;DHT22;6217;48.150;17.142;2022-12-20T06:01:56;1.10;99.90
12309;DHT22;6217;48.150;17.142;2022-12-20T06:06:03;1.10;99.90
12309;DHT22;6217;48.150;17.142;2022-12-20T06:10:11;1.10;99.90
12309;DHT22;6217;48.150;17.142;2022-12-20T06:14:27;1.10;99.90
12309;DHT22;6217;48.150;17.142;2022-12-20T06:18:35;1.20;99.90
12309;DHT22;6217;48.150;17.142;2022-12-20T06:22:42;1.10;99.90
12309;DHT22;6217;48.150;17.142;2022-12-20T06:26:48;1.20;99.90
12309;DHT22;6217;48.150;17.142;2022-12-20T06:30:57;1.20;99.90
12309;DHT22;6217;48.150;17.142;2022-12-20T06:35:17;1.20;99.90
12309;DHT22;6217;48.150;17.142;2022-12-20T06:39:23;1.20;99.90
12309;DHT22;6217;48.150;17.142;2022-12-20T06:43:38;1.30;99.90
12309;DHT22;6217;48.150;17.142;2022-12-20T06:47:44;1.20;99.90
12309;DHT22;6217;48.150;17.142;2022-12-20T06:51:50;1.30;99.90
12309;DHT22;6217;48.150;17.142;2022-12-20T06:56:00;1.20;99.90
12309;DHT22;6217;48.150;17.142;2022-12-20T07:00:11;1.20;99.90
12309;DHT22;6217;48.150;17.142;2022-12-20T07:04:17;1.20;99.90
12309;DHT22;6217;48.150;17.142;2022-12-20T07:08:24;1.20;99.90
12309;DHT22;6217;48.150;17.142;2022-12-20T07:12:30;1.20;99.90
12309;DHT22;6217;48.150;17.142;2022-12-20T07:16:37;1.20;99.90
12309;DHT22;6217;48.150;17.142;2022-12-20T07:20:42;1.20;99.90
12309;DHT22;6217;48.150;17.142;2022-12-20T07:24:49;1.20;99.90
12309;DHT22;6217;48.150;17.142;2022-12-20T07:28:55;1.20;99.90
12309;DHT22;6217;48.150;17.142;2022-12-20T07:33:01;1.30;99.90
12309;DHT22;6217;48.150;17.142;2022-12-20T07:37:06;1.30;99.90
12309;DHT22;6217;48.150;17.142;2022-12-20T07:41:14;1.30;99.90
12309;DHT22;6217;48.150;17.142;2022-12-20T07:45:21;1.40;99.90
12309;DHT22;6217;48.150;17.142;2022-12-20T07:49:26;1.30;99.90
12309;DHT22;6217;48.150;17.142;2022-12-20T07:53:36;1.30;99.90
12309;DHT22;6217;48.150;17.142;2022-12-20T07:57:47;1.40;99.90
12309;DHT22;6217;48.150;17.142;2022-12-20T08:01:56;1.30;99.90
12309;DHT22;6217;48.150;17.142;2022-12-20T08:06:02;1.30;99.90
12309;DHT22;6217;48.150;17.142;2022-12-20T08:10:11;1.20;99.90
12309;DHT22;6217;48.150;17.142;2022-12-20T08:14:18;1.20;99.90
12309;DHT22;6217;48.150;17.142;2022-12-20T08:18:23;1.30;99.90
12309;DHT22;6217;48.150;17.142;2022-12-20T08:22:29;1.30;99.90
12309;DHT22;6217;48.150;17.142;2022-12-20T08:26:41;1.40;99.90
12309;DHT22;6217;48.150;17.142;2022-12-20T08:30:46;1.40;99.90
12309;DHT22;6217;48.150;17.142;2022-12-20T08:34:52;1.40;99.90
12309;DHT22;6217;48.150;17.142;2022-12-20T08:39:02;1.40;99.90
12309;DHT22;6217;48.150;17.142;2022-12-20T08:43:08;1.40;99.90
12309;DHT22;6217;48.150;17.142;2022-12-20T08:47:14;1.50;99.90
12309;DHT22;6217;48.150;17.142;2022-12-20T08:51:20;1.50;99.90
12309;DHT22;6217;48.150;17.142;2022-12-20T08:55:26;1.50;99.90
12309;DHT22;6217;48.150;17.142;2022-12-20T08:59:31;1.50;99.90
12309;DHT22;6217;48.150;17.142;2022-12-20T09:03:38;1.50;99.90
12309;DHT22;6217;48.150;17.142;2022-12-20T09:07:44;1.50;99.90
12309;DHT22;6217;48.150;17.142;2022-12-20T09:11:50;1.60;99.90
12309;DHT22;6217;48.150;17.142;2022-12-20T09:15:59;1.50;99.90
12309;DHT22;6217;48.150;17.142;2022-12-20T09:20:05;1.60;99.90
12309;DHT22;6217;48.150;17.142;2022-12-20T09:24:11;1.50;99.90
12309;DHT22;6217;48.150;17.142;2022-12-20T09:28:17;1.60;99.90
12309;DHT22;6217;48.150;17.142;2022-12-20T09:32:23;1.60;99.90
12309;DHT22;6217;48.150;17.142;2022-12-20T09:36:29;1.50;99.90
12309;DHT22;6217;48.150;17.142;2022-12-20T09:40:35;1.50;99.90
12309;DHT22;6217;48.150;17.142;2022-12-20T09:44:43;1.50;99.90
12309;DHT22;6217;48.150;17.142;2022-12-20T09:48:49;1.50;99.90
12309;DHT22;6217;48.150;17.142;2022-12-20T09:57:29;1.60;99.90
12309;DHT22;6217;48.150;17.142;2022-12-20T10:01:37;1.60;99.90
12309;DHT22;6217;48.150;17.142;2022-12-20T10:05:57;1.60;99.90
12309;DHT22;6217;48.150;17.142;2022-12-20T10:23:29;1.50;99.90
12309;DHT22;6217;48.150;17.142;2022-12-20T10:27:40;1.60;99.90
12309;DHT22;6217;48.150;17.142;2022-12-20T10:31:53;1.40;99.90
12309;DHT22;6217;48.150;17.142;2022-12-20T10:36:35;1.50;99.90
12309;DHT22;6217;48.150;17.142;2022-12-20T10:40:47;1.60;99.90
12309;DHT22;6217;48.150;17.142;2022-12-20T10:44:54;1.50;99.90
12309;DHT22;6217;48.150;17.142;2022-12-20T10:49:37;1.50;99.90
12309;DHT22;6217;48.150;17.142;2022-12-20T10:54:00;1.50;99.90
12309;DHT22;6217;48.150;17.142;2022-12-20T10:58:32;1.60;99.90
12309;DHT22;6217;48.150;17.142;2022-12-20T11:02:40;1.50;99.90
12309;DHT22;6217;48.150;17.142;2022-12-20T11:06:46;1.60;99.90
12309;DHT22;6217;48.150;17.142;2022-12-20T11:11:19;1.50;99.90
12309;DHT22;6217;48.150;17.142;2022-12-20T11:15:34;1.50;99.90
12309;DHT22;6217;48.150;17.142;2022-12-20T11:24:10;1.60;99.90
12309;DHT22;6217;48.150;17.142;2022-12-20T11:28:21;1.60;99.90
12309;DHT22;6217;48.150;17.142;2022-12-20T11:41:24;1.50;99.90
12309;DHT22;6217;48.150;17.142;2022-12-20T11:45:41;1.60;99.90
12309;DHT22;6217;48.150;17.142;2022-12-20T11:50:12;1.60;99.90
12309;DHT22;6217;48.150;17.142;2022-12-20T11:54:27;1.60;99.90
12309;DHT22;6217;48.150;17.142;2022-12-20T12:02:50;1.60;99.90
12309;DHT22;6217;48.150;17.142;2022-12-20T12:07:03;1.50;99.90
12309;DHT22;6217;48.150;17.142;2022-12-20T12:11:24;1.50;99.90
12309;DHT22;6217;48.150;17.142;2022-12-20T12:16:08;1.60;99.90
12309;DHT22;6217;48.150;17.142;2022-12-20T12:20:36;1.70;99.90
12309;DHT22;6217;48.150;17.142;2022-12-20T12:24:47;1.70;99.90
12309;DHT22;6217;48.150;17.142;2022-12-20T12:33:22;1.70;99.90
12309;DHT22;6217;48.150;17.142;2022-12-20T12:37:44;1.70;99.90
12309;DHT22;6217;48.150;17.142;2022-12-20T12:46:10;1.60;99.90
12309;DHT22;6217;48.150;17.142;2022-12-20T12:50:31;1.60;99.90
12309;DHT22;6217;48.150;17.142;2022-12-20T12:54:40;1.60;99.90
12309;DHT22;6217;48.150;17.142;2022-12-20T13:03:16;1.60;99.90
12309;DHT22;6217;48.150;17.142;2022-12-20T13:11:45;1.60;99.90
12309;DHT22;6217;48.150;17.142;2022-12-20T13:16:05;1.60;99.90
12309;DHT22;6217;48.150;17.142;2022-12-20T13:20:21;1.60;99.90
12309;DHT22;6217;48.150;17.142;2022-12-20T13:24:49;1.60;99.90
12309;DHT22;6217;48.150;17.142;2022-12-20T13:29:21;1.60;99.90
12309;DHT22;6217;48.150;17.142;2022-12-20T13:33:46;1.70;99.90
12309;DHT22;6217;48.150;17.142;2022-12-20T13:38:14;1.90;99.90
12309;DHT22;6217;48.150;17.142;2022-12-20T13:42:36;2.00;99.80
12309;DHT22;6217;48.150;17.142;2022-12-20T13:51:24;1.90;99.60
12309;DHT22;6217;48.150;17.142;2022-12-20T13:55:33;1.90;99.40
12309;DHT22;6217;48.150;17.142;2022-12-20T13:59:39;1.80;99.60
12309;DHT22;6217;48.150;17.142;2022-12-20T14:03:49;1.80;99.40
12309;DHT22;6217;48.150;17.142;2022-12-20T14:08:20;1.80;99.40
12309;DHT22;6217;48.150;17.142;2022-12-20T14:12:27;1.80;99.60
12309;DHT22;6217;48.150;17.142;2022-12-20T14:16:33;1.70;99.30
12309;DHT22;6217;48.150;17.142;2022-12-20T14:20:39;1.80;99.30
12309;DHT22;6217;48.150;17.142;2022-12-20T14:24:45;1.80;99.10
12309;DHT22;6217;48.150;17.142;2022-12-20T14:28:55;1.80;99.10
12309;DHT22;6217;48.150;17.142;2022-12-20T14:33:02;1.80;99.10
12309;DHT22;6217;48.150;17.142;2022-12-20T14:45:40;1.60;99.30
12309;DHT22;6217;48.150;17.142;2022-12-20T14:49:53;1.60;99.40
12309;DHT22;6217;48.150;17.142;2022-12-20T14:54:00;1.50;99.50
12309;DHT22;6217;48.150;17.142;2022-12-20T14:58:24;1.40;99.60
12309;DHT22;6217;48.150;17.142;2022-12-20T15:02:38;1.50;99.90
12309;DHT22;6217;48.150;17.142;2022-12-20T15:06:44;1.50;99.90
12309;DHT22;6217;48.150;17.142;2022-12-20T15:11:20;1.50;99.80
12309;DHT22;6217;48.150;17.142;2022-12-20T15:15:26;1.40;99.90
12309;DHT22;6217;48.150;17.142;2022-12-20T15:19:32;1.50;99.90
12309;DHT22;6217;48.150;17.142;2022-12-20T15:23:45;1.50;99.90
12309;DHT22;6217;48.150;17.142;2022-12-20T15:27:51;1.60;99.90
12309;DHT22;6217;48.150;17.142;2022-12-20T15:32:15;1.70;99.90
12309;DHT22;6217;48.150;17.142;2022-12-20T15:36:27;1.70;99.90
12309;DHT22;6217;48.150;17.142;2022-12-20T15:40:33;1.70;99.90
12309;DHT22;6217;48.150;17.142;2022-12-20T15:44:40;1.60;99.90
12309;DHT22;6217;48.150;17.142;2022-12-20T15:48:46;1.60;99.90
12309;DHT22;6217;48.150;17.142;2022-12-20T15:52:52;1.60;99.90
12309;DHT22;6217;48.150;17.142;2022-12-20T15:57:00;1.60;99.90
12309;DHT22;6217;48.150;17.142;2022-12-20T16:01:08;1.70;99.90
12309;DHT22;6217;48.150;17.142;2022-12-20T16:05:16;1.60;99.90
12309;DHT22;6217;48.150;17.142;2022-12-20T16:09:22;1.70;99.90
12309;DHT22;6217;48.150;17.142;2022-12-20T16:13:30;1.70;99.90
12309;DHT22;6217;48.150;17.142;2022-12-20T16:17:36;1.60;99.90
12309;DHT22;6217;48.150;17.142;2022-12-20T16:21:47;1.70;99.90
12309;DHT22;6217;48.150;17.142;2022-12-20T16:25:53;1.60;99.90
12309;DHT22;6217;48.150;17.142;2022-12-20T16:29:58;1.70;99.90
12309;DHT22;6217;48.150;17.142;2022-12-20T16:34:08;1.60;99.90
12309;DHT22;6217;48.150;17.142;2022-12-20T16:38:14;1.60;99.90
12309;DHT22;6217;48.150;17.142;2022-12-20T16:42:20;1.60;99.90
12309;DHT22;6217;48.150;17.142;2022-12-20T16:46:30;1.70;99.90
12309;DHT22;6217;48.150;17.142;2022-12-20T16:50:36;1.70;99.90
12309;DHT22;6217;48.150;17.142;2022-12-20T16:54:47;1.70;99.90
12309;DHT22;6217;48.150;17.142;2022-12-20T16:58:54;1.70;99.90
12309;DHT22;6217;48.150;17.142;2022-12-20T17:02:59;1.60;99.90
12309;DHT22;6217;48.150;17.142;2022-12-20T17:07:05;1.70;99.90
12309;DHT22;6217;48.150;17.142;2022-12-20T17:11:21;1.60;99.90
12309;DHT22;6217;48.150;17.142;2022-12-20T17:15:29;1.70;99.90
12309;DHT22;6217;48.150;17.142;2022-12-20T17:19:36;1.70;99.90
12309;DHT22;6217;48.150;17.142;2022-12-20T17:23:42;1.70;99.90
12309;DHT22;6217;48.150;17.142;2022-12-20T17:27:48;1.80;99.90
12309;DHT22;6217;48.150;17.142;2022-12-20T17:31:54;1.70;99.90
12309;DHT22;6217;48.150;17.142;2022-12-20T17:36:00;1.80;99.90
12309;DHT22;6217;48.150;17.142;2022-12-20T17:40:07;1.80;99.90
12309;DHT22;6217;48.150;17.142;2022-12-20T17:44:25;1.80;99.90
12309;DHT22;6217;48.150;17.142;2022-12-20T17:48:31;1.80;99.90
12309;DHT22;6217;48.150;17.142;2022-12-20T17:52:37;1.80;99.90
12309;DHT22;6217;48.150;17.142;2022-12-20T17:56:44;1.70;99.90
12309;DHT22;6217;48.150;17.142;2022-12-20T18:00:50;1.70;99.90
12309;DHT22;6217;48.150;17.142;2022-12-20T18:04:58;1.80;99.90
12309;DHT22;6217;48.150;17.142;2022-12-20T18:09:09;1.70;99.90
12309;DHT22;6217;48.150;17.142;2022-12-20T18:13:16;1.90;99.90
12309;DHT22;6217;48.150;17.142;2022-12-20T18:17:22;1.80;99.90
12309;DHT22;6217;48.150;17.142;2022-12-20T18:21:28;1.70;99.90
12309;DHT22;6217;48.150;17.142;2022-12-20T18:25:34;1.70;99.90
12309;DHT22;6217;48.150;17.142;2022-12-20T18:29:39;1.70;99.90
12309;DHT22;6217;48.150;17.142;2022-12-20T18:33:46;1.70;99.90
12309;DHT22;6217;48.150;17.142;2022-12-20T18:37:52;1.70;99.90
12309;DHT22;6217;48.150;17.142;2022-12-20T18:41:58;1.80;99.90
12309;DHT22;6217;48.150;17.142;2022-12-20T18:46:05;1.80;99.90
12309;DHT22;6217;48.150;17.142;2022-12-20T18:50:11;1.90;99.90
12309;DHT22;6217;48.150;17.142;2022-12-20T18:54:17;2.00;99.90
12309;DHT22;6217;48.150;17.142;2022-12-20T18:58:23;1.90;99.90
12309;DHT22;6217;48.150;17.142;2022-12-20T19:02:29;2.00;99.90
12309;DHT22;6217;48.150;17.142;2022-12-20T19:06:35;2.10;99.90
12309;DHT22;6217;48.150;17.142;2022-12-20T19:10:41;2.20;99.90
12309;DHT22;6217;48.150;17.142;2022-12-20T19:14:47;2.20;99.90
12309;DHT22;6217;48.150;17.142;2022-12-20T19:18:53;2.10;99.90
12309;DHT22;6217;48.150;17.142;2022-12-20T19:22:58;2.20;99.90
12309;DHT22;6217;48.150;17.142;2022-12-20T19:27:04;2.20;99.90
12309;DHT22;6217;48.150;17.142;2022-12-20T19:31:21;2.30;99.90
12309;DHT22;6217;48.150;17.142;2022-12-20T19:35:28;2.30;99.90
12309;DHT22;6217;48.150;17.142;2022-12-20T19:39:38;2.30;99.90
12309;DHT22;6217;48.150;17.142;2022-12-20T19:43:45;2.20;99.90
12309;DHT22;6217;48.150;17.142;2022-12-20T19:47:51;2.20;99.90
12309;DHT22;6217;48.150;17.142;2022-12-20T19:52:01;2.20;99.90
12309;DHT22;6217;48.150;17.142;2022-12-20T19:56:06;2.20;99.90
12309;DHT22;6217;48.150;17.142;2022-12-20T20:00:15;2.20;99.90
12309;DHT22;6217;48.150;17.142;2022-12-20T20:04:21;2.10;99.90
12309;DHT22;6217;48.150;17.142;2022-12-20T20:08:27;2.00;99.90
12309;DHT22;6217;48.150;17.142;2022-12-20T20:12:33;2.00;99.90
12309;DHT22;6217;48.150;17.142;2022-12-20T20:16:40;2.00;99.90
12309;DHT22;6217;48.150;17.142;2022-12-20T20:20:46;2.10;99.90
12309;DHT22;6217;48.150;17.142;2022-12-20T20:24:52;2.00;99.90
12309;DHT22;6217;48.150;17.142;2022-12-20T20:29:00;2.00;99.90
12309;DHT22;6217;48.150;17.142;2022-12-20T20:33:07;2.00;99.90
12309;DHT22;6217;48.150;17.142;2022-12-20T20:37:13;2.00;99.90
12309;DHT22;6217;48.150;17.142;2022-12-20T20:41:19;1.90;99.90
12309;DHT22;6217;48.150;17.142;2022-12-20T20:45:25;2.00;99.90
12309;DHT22;6217;48.150;17.142;2022-12-20T20:49:33;2.10;99.90
12309;DHT22;6217;48.150;17.142;2022-12-20T20:53:39;1.90;99.90
12309;DHT22;6217;48.150;17.142;2022-12-20T20:57:45;2.00;99.90
12309;DHT22;6217;48.150;17.142;2022-12-20T21:01:51;1.90;99.90
12309;DHT22;6217;48.150;17.142;2022-12-20T21:05:57;1.90;99.90
12309;DHT22;6217;48.150;17.142;2022-12-20T21:10:03;1.90;99.90
12309;DHT22;6217;48.150;17.142;2022-12-20T21:14:09;2.00;99.90
12309;DHT22;6217;48.150;17.142;2022-12-20T21:18:18;2.10;99.90
12309;DHT22;6217;48.150;17.142;2022-12-20T21:22:24;2.10;99.90
12309;DHT22;6217;48.150;17.142;2022-12-20T21:26:33;2.10;99.90
12309;DHT22;6217;48.150;17.142;2022-12-20T21:30:39;2.10;99.90
12309;DHT22;6217;48.150;17.142;2022-12-20T21:34:44;2.00;99.90
12309;DHT22;6217;48.150;17.142;2022-12-20T21:38:52;2.00;99.90
12309;DHT22;6217;48.150;17.142;2022-12-20T21:42:59;2.10;99.90
12309;DHT22;6217;48.150;17.142;2022-12-20T21:47:04;2.10;99.90
12309;DHT22;6217;48.150;17.142;2022-12-20T21:51:18;2.10;99.90
12309;DHT22;6217;48.150;17.142;2022-12-20T21:55:24;2.20;99.90
12309;DHT22;6217;48.150;17.142;2022-12-20T21:59:30;2.20;99.90
12309;DHT22;6217;48.150;17.142;2022-12-20T22:03:36;2.20;99.80
12309;DHT22;6217;48.150;17.142;2022-12-20T22:07:45;2.10;99.90
12309;DHT22;6217;48.150;17.142;2022-12-20T22:11:51;2.30;99.90
12309;DHT22;6217;48.150;17.142;2022-12-20T22:15:57;2.30;99.90
12309;DHT22;6217;48.150;17.142;2022-12-20T22:20:03;2.20;99.90
12309;DHT22;6217;48.150;17.142;2022-12-20T22:24:09;2.20;99.90
12309;DHT22;6217;48.150;17.142;2022-12-20T22:28:14;2.30;99.90
12309;DHT22;6217;48.150;17.142;2022-12-20T22:32:23;2.30;99.90
12309;DHT22;6217;48.150;17.142;2022-12-20T22:36:29;2.20;99.90
12309;DHT22;6217;48.150;17.142;2022-12-20T22:40:35;2.20;99.90
12309;DHT22;6217;48.150;17.142;2022-12-20T22:44:41;2.10;99.90
12309;DHT22;6217;48.150;17.142;2022-12-20T22:48:47;2.10;99.90
12309;DHT22;6217;48.150;17.142;2022-12-20T22:52:52;2.10;99.90
12309;DHT22;6217;48.150;17.142;2022-12-20T22:56:58;2.20;99.90
12309;DHT22;6217;48.150;17.142;2022-12-20T23:01:06;2.30;99.90
12309;DHT22;6217;48.150;17.142;2022-12-20T23:05:13;2.30;99.90
12309;DHT22;6217;48.150;17.142;2022-12-20T23:09:23;2.40;99.90
12309;DHT22;6217;48.150;17.142;2022-12-20T23:13:32;2.40;99.90
12309;DHT22;6217;48.150;17.142;2022-12-20T23:17:57;2.30;99.90
12309;DHT22;6217;48.150;17.142;2022-12-20T23:22:03;2.30;99.90
12309;DHT22;6217;48.150;17.142;2022-12-20T23:26:28;2.30;99.90
12309;DHT22;6217;48.150;17.142;2022-12-20T23:30:34;2.30;99.90
12309;DHT22;6217;48.150;17.142;2022-12-20T23:34:40;2.20;99.90
12309;DHT22;6217;48.150;17.142;2022-12-20T23:38:46;2.30;99.90
12309;DHT22;6217;48.150;17.142;2022-12-20T23:42:52;2.20;99.90
12309;DHT22;6217;48.150;17.142;2022-12-20T23:46:59;2.10;99.90
12309;DHT22;6217;48.150;17.142;2022-12-20T23:51:05;2.00;99.90
12309;DHT22;6217;48.150;17.142;2022-12-20T23:55:11;2.00;99.90
12309;DHT22;6217;48.150;17.142;2022-12-20T23:59:16;2.00;99.90
